sensor_id;sensor_type;location;lat;lon;timestamp;pressure;altitude;pressure_sealevel;temperature;humidity
56241;BME280;42155;53.096;23.226;2023-04-23T00:00:14;99812.16;;;7.81;70.76
56241;BME280;42155;53.096;23.226;2023-04-23T00:02:15;99822.81;;;7.92;71.10
56241;BME280;42155;53.096;23.226;2023-04-23T00:04:16;99820.91;;;7.94;71.00
56241;BME280;42155;53.096;23.226;2023-04-23T00:06:17;99824.78;;;8.01;71.22
56241;BME280;42155;53.096;23.226;2023-04-23T00:08:19;99816.41;;;8.07;71.21
56241;BME280;42155;53.096;23.226;2023-04-23T00:10:19;99815.25;;;8.11;71.11
56241;BME280;42155;53.096;23.226;2023-04-23T00:12:20;99819.75;;;8.22;70.77
56241;BME280;42155;53.096;23.226;2023-04-23T00:14:21;99821.84;;;8.30;70.49
56241;BME280;42155;53.096;23.226;2023-04-23T00:16:21;99823.00;;;8.38;70.77
56241;BME280;42155;53.096;23.226;2023-04-23T00:18:22;99829.63;;;8.44;70.49
56241;BME280;42155;53.096;23.226;2023-04-23T00:20:22;99823.28;;;8.47;70.76
56241;BME280;42155;53.096;23.226;2023-04-23T00:22:22;99771.56;;;8.19;70.65
56241;BME280;42155;53.096;23.226;2023-04-23T00:24:23;99807.84;;;8.40;70.69
56241;BME280;42155;53.096;23.226;2023-04-23T00:26:23;99801.72;;;8.40;70.56
56241;BME280;42155;53.096;23.226;2023-04-23T00:28:23;99820.28;;;8.51;70.68
56241;BME280;42155;53.096;23.226;2023-04-23T00:30:24;99820.28;;;8.51;71.17
56241;BME280;42155;53.096;23.226;2023-04-23T00:32:24;99818.84;;;8.47;70.66
56241;BME280;42155;53.096;23.226;2023-04-23T00:34:25;99810.16;;;8.45;70.91
56241;BME280;42155;53.096;23.226;2023-04-23T00:36:25;99796.97;;;8.32;71.13
56241;BME280;42155;53.096;23.226;2023-04-23T00:38:26;99817.59;;;8.40;70.82
56241;BME280;42155;53.096;23.226;2023-04-23T00:40:26;99819.25;;;8.41;70.97
56241;BME280;42155;53.096;23.226;2023-04-23T00:42:27;99816.63;;;8.41;71.19
56241;BME280;42155;53.096;23.226;2023-04-23T00:44:28;99810.63;;;8.39;71.17
56241;BME280;42155;53.096;23.226;2023-04-23T00:46:28;99813.56;;;8.34;70.98
56241;BME280;42155;53.096;23.226;2023-04-23T00:48:28;99813.69;;;8.33;70.88
56241;BME280;42155;53.096;23.226;2023-04-23T00:50:29;99814.88;;;8.29;70.47
56241;BME280;42155;53.096;23.226;2023-04-23T00:52:29;99812.31;;;8.27;70.80
56241;BME280;42155;53.096;23.226;2023-04-23T00:54:29;99814.44;;;8.22;70.77
56241;BME280;42155;53.096;23.226;2023-04-23T00:56:30;99821.88;;;8.17;71.11
56241;BME280;42155;53.096;23.226;2023-04-23T00:58:31;99815.25;;;8.11;70.53
56241;BME280;42155;53.096;23.226;2023-04-23T01:00:34;99803.44;;;8.04;71.01
56241;BME280;42155;53.096;23.226;2023-04-23T01:02:37;99812.94;;;8.07;70.86
56241;BME280;42155;53.096;23.226;2023-04-23T01:04:40;99821.69;;;8.07;70.31
56241;BME280;42155;53.096;23.226;2023-04-23T01:06:42;99809.91;;;8.00;70.38
56241;BME280;42155;53.096;23.226;2023-04-23T01:08:44;99784.13;;;7.91;70.43
56241;BME280;42155;53.096;23.226;2023-04-23T01:10:46;99800.50;;;7.96;70.77
56241;BME280;42155;53.096;23.226;2023-04-23T01:12:47;99810.50;;;8.04;70.53
56241;BME280;42155;53.096;23.226;2023-04-23T01:14:47;99810.75;;;8.01;70.22
56241;BME280;42155;53.096;23.226;2023-04-23T01:16:48;99728.88;;;7.51;70.51
56241;BME280;42155;53.096;23.226;2023-04-23T01:18:49;99809.91;;;8.00;70.22
56241;BME280;42155;53.096;23.226;2023-04-23T01:20:49;99810.13;;;7.97;70.48
56241;BME280;42155;53.096;23.226;2023-04-23T01:22:49;99818.38;;;7.93;70.87
56241;BME280;42155;53.096;23.226;2023-04-23T01:24:50;99801.50;;;7.82;70.36
56241;BME280;42155;53.096;23.226;2023-04-23T01:26:51;99824.09;;;7.86;70.82
56241;BME280;42155;53.096;23.226;2023-04-23T01:28:51;99814.78;;;7.81;70.18
56241;BME280;42155;53.096;23.226;2023-04-23T01:30:52;99807.31;;;7.75;70.63
56241;BME280;42155;53.096;23.226;2023-04-23T01:32:56;99811.13;;;7.71;71.11
56241;BME280;42155;53.096;23.226;2023-04-23T01:34:57;99813.03;;;7.69;71.01
56241;BME280;42155;53.096;23.226;2023-04-23T01:36:57;99815.69;;;7.69;70.34
56241;BME280;42155;53.096;23.226;2023-04-23T01:38:58;99815.25;;;7.62;71.08
56241;BME280;42155;53.096;23.226;2023-04-23T01:40:58;99801.34;;;7.47;70.37
56241;BME280;42155;53.096;23.226;2023-04-23T01:42:59;99788.06;;;7.36;70.64
56241;BME280;42155;53.096;23.226;2023-04-23T01:45:01;99790.38;;;7.40;70.70
56241;BME280;42155;53.096;23.226;2023-04-23T01:47:01;99827.53;;;7.50;70.76
56241;BME280;42155;53.096;23.226;2023-04-23T01:49:02;99821.00;;;7.43;70.45
56241;BME280;42155;53.096;23.226;2023-04-23T01:51:02;99818.06;;;7.35;70.96
56241;BME280;42155;53.096;23.226;2023-04-23T01:53:03;99817.41;;;7.31;70.54
56241;BME280;42155;53.096;23.226;2023-04-23T01:55:03;99816.38;;;7.21;70.93
56241;BME280;42155;53.096;23.226;2023-04-23T01:57:04;99820.78;;;7.21;71.08
56241;BME280;42155;53.096;23.226;2023-04-23T01:59:04;99823.53;;;7.19;71.18
56241;BME280;42155;53.096;23.226;2023-04-23T02:01:04;99822.91;;;7.15;71.28
56241;BME280;42155;53.096;23.226;2023-04-23T02:03:05;99822.47;;;7.09;70.81
56241;BME280;42155;53.096;23.226;2023-04-23T02:05:12;99826.47;;;7.02;71.28
56241;BME280;42155;53.096;23.226;2023-04-23T02:07:12;99828.25;;;7.01;71.38
56241;BME280;42155;53.096;23.226;2023-04-23T02:09:12;99836.19;;;7.01;70.82
56241;BME280;42155;53.096;23.226;2023-04-23T02:11:13;99825.84;;;6.98;70.93
56241;BME280;42155;53.096;23.226;2023-04-23T02:13:13;99823.53;;;6.94;70.83
56241;BME280;42155;53.096;23.226;2023-04-23T02:15:14;99816.53;;;6.93;71.47
56241;BME280;42155;53.096;23.226;2023-04-23T02:17:15;99822.66;;;6.93;70.91
56241;BME280;42155;53.096;23.226;2023-04-23T02:19:15;99814.97;;;6.90;70.85
56241;BME280;42155;53.096;23.226;2023-04-23T02:21:15;99776.19;;;6.65;71.26
56241;BME280;42155;53.096;23.226;2023-04-23T02:23:16;99793.31;;;6.72;70.85
56241;BME280;42155;53.096;23.226;2023-04-23T02:25:17;99823.09;;;6.87;70.84
56241;BME280;42155;53.096;23.226;2023-04-23T02:27:18;99812.97;;;6.81;71.21
56241;BME280;42155;53.096;23.226;2023-04-23T02:29:18;99819.19;;;6.80;71.77
56241;BME280;42155;53.096;23.226;2023-04-23T02:31:19;99807.53;;;6.70;71.45
56241;BME280;42155;53.096;23.226;2023-04-23T02:33:19;99808.72;;;6.66;71.70
56241;BME280;42155;53.096;23.226;2023-04-23T02:35:19;99813.34;;;6.75;71.78
56241;BME280;42155;53.096;23.226;2023-04-23T02:37:20;99823.91;;;6.75;71.34
56241;BME280;42155;53.096;23.226;2023-04-23T02:39:20;99813.69;;;6.70;71.76
56241;BME280;42155;53.096;23.226;2023-04-23T02:41:20;99824.13;;;6.72;71.42
56241;BME280;42155;53.096;23.226;2023-04-23T02:43:21;99816.50;;;6.67;71.83
56241;BME280;42155;53.096;23.226;2023-04-23T02:45:21;99821.97;;;6.64;71.51
56241;BME280;42155;53.096;23.226;2023-04-23T02:47:21;99820.28;;;6.63;72.00
56241;BME280;42155;53.096;23.226;2023-04-23T02:49:22;99820.50;;;6.60;71.97
56241;BME280;42155;53.096;23.226;2023-04-23T02:51:22;99828.69;;;6.55;71.97
56241;BME280;42155;53.096;23.226;2023-04-23T02:53:22;99821.56;;;6.57;71.70
56241;BME280;42155;53.096;23.226;2023-04-23T02:55:23;99826.72;;;6.59;71.71
56241;BME280;42155;53.096;23.226;2023-04-23T02:57:23;99819.47;;;6.62;71.78
56241;BME280;42155;53.096;23.226;2023-04-23T02:59:24;99821.97;;;6.64;71.51
56241;BME280;42155;53.096;23.226;2023-04-23T03:01:24;99825.28;;;6.68;71.81
56241;BME280;42155;53.096;23.226;2023-04-23T03:03:26;99829.41;;;6.72;72.31
56241;BME280;42155;53.096;23.226;2023-04-23T03:05:26;99821.25;;;6.75;72.10
56241;BME280;42155;53.096;23.226;2023-04-23T03:07:27;99833.28;;;6.79;71.68
56241;BME280;42155;53.096;23.226;2023-04-23T03:09:27;99727.19;;;6.23;72.04
56241;BME280;42155;53.096;23.226;2023-04-23T03:11:27;99832.16;;;6.83;72.31
56241;BME280;42155;53.096;23.226;2023-04-23T03:13:28;99823.28;;;6.84;72.64
56241;BME280;42155;53.096;23.226;2023-04-23T03:15:28;99818.97;;;6.83;72.25
56241;BME280;42155;53.096;23.226;2023-04-23T03:17:28;99823.50;;;6.81;72.56
56241;BME280;42155;53.096;23.226;2023-04-23T03:19:28;99822.13;;;6.88;72.02
56241;BME280;42155;53.096;23.226;2023-04-23T03:21:29;99829.66;;;6.94;72.00
56241;BME280;42155;53.096;23.226;2023-04-23T03:23:29;99746.25;;;6.53;72.47
56241;BME280;42155;53.096;23.226;2023-04-23T03:25:30;99741.69;;;6.55;72.09
56241;BME280;42155;53.096;23.226;2023-04-23T03:27:30;99825.13;;;7.09;72.60
56241;BME280;42155;53.096;23.226;2023-04-23T03:29:30;99823.97;;;7.13;72.46
56241;BME280;42155;53.096;23.226;2023-04-23T03:31:31;99817.41;;;7.19;72.46
56241;BME280;42155;53.096;23.226;2023-04-23T03:33:31;99815.50;;;7.21;72.40
56241;BME280;42155;53.096;23.226;2023-04-23T03:35:31;99803.50;;;7.17;72.35
56241;BME280;42155;53.096;23.226;2023-04-23T03:37:31;99788.81;;;7.12;71.94
56241;BME280;42155;53.096;23.226;2023-04-23T03:39:32;99819.75;;;7.36;71.89
56241;BME280;42155;53.096;23.226;2023-04-23T03:41:32;99824.59;;;7.42;72.24
56241;BME280;42155;53.096;23.226;2023-04-23T03:43:32;99819.72;;;7.49;72.46
56241;BME280;42155;53.096;23.226;2023-04-23T03:45:33;99823.50;;;7.57;72.37
56241;BME280;42155;53.096;23.226;2023-04-23T03:47:33;99821.63;;;7.59;72.00
56241;BME280;42155;53.096;23.226;2023-04-23T03:49:33;99816.72;;;7.66;72.39
56241;BME280;42155;53.096;23.226;2023-04-23T03:51:34;99827.50;;;7.76;72.17
56241;BME280;42155;53.096;23.226;2023-04-23T03:53:34;99817.88;;;7.87;72.29
56241;BME280;42155;53.096;23.226;2023-04-23T03:55:34;99823.78;;;7.91;71.79
56241;BME280;42155;53.096;23.226;2023-04-23T03:57:35;99819.00;;;7.96;72.22
56241;BME280;42155;53.096;23.226;2023-04-23T03:59:36;99819.19;;;8.06;72.44
56241;BME280;42155;53.096;23.226;2023-04-23T04:01:38;99832.06;;;8.10;72.56
56241;BME280;42155;53.096;23.226;2023-04-23T04:03:38;99809.25;;;8.09;71.75
56241;BME280;42155;53.096;23.226;2023-04-23T04:05:38;99823.00;;;8.26;71.91
56241;BME280;42155;53.096;23.226;2023-04-23T04:07:39;99816.53;;;8.30;72.12
56241;BME280;42155;53.096;23.226;2023-04-23T04:09:39;99822.66;;;8.43;72.41
56241;BME280;42155;53.096;23.226;2023-04-23T04:11:39;99811.00;;;8.46;71.94
56241;BME280;42155;53.096;23.226;2023-04-23T04:13:39;99821.28;;;8.61;71.94
56241;BME280;42155;53.096;23.226;2023-04-23T04:15:40;99825.22;;;8.80;72.14
56241;BME280;42155;53.096;23.226;2023-04-23T04:17:40;99836.56;;;9.04;71.37
56241;BME280;42155;53.096;23.226;2023-04-23T04:19:41;99761.75;;;9.13;70.73
56241;BME280;42155;53.096;23.226;2023-04-23T04:21:41;99827.69;;;10.06;68.88
56241;BME280;42155;53.096;23.226;2023-04-23T04:23:43;99819.13;;;10.03;68.11
56241;BME280;42155;53.096;23.226;2023-04-23T04:25:43;99815.91;;;9.99;69.19
56241;BME280;42155;53.096;23.226;2023-04-23T04:27:43;99840.50;;;9.90;69.04
56241;BME280;42155;53.096;23.226;2023-04-23T04:29:44;99827.56;;;10.19;68.93
56241;BME280;42155;53.096;23.226;2023-04-23T04:31:44;99813.91;;;10.24;68.20
56241;BME280;42155;53.096;23.226;2023-04-23T04:33:44;99814.63;;;10.37;68.21
56241;BME280;42155;53.096;23.226;2023-04-23T04:35:45;99822.06;;;10.54;67.35
56241;BME280;42155;53.096;23.226;2023-04-23T04:37:45;99826.94;;;10.70;67.56
56241;BME280;42155;53.096;23.226;2023-04-23T04:39:46;99781.94;;;10.68;67.22
56241;BME280;42155;53.096;23.226;2023-04-23T04:41:46;99822.41;;;11.24;67.08
56241;BME280;42155;53.096;23.226;2023-04-23T04:43:50;99820.03;;;11.51;65.95
56241;BME280;42155;53.096;23.226;2023-04-23T04:45:51;99809.34;;;11.72;64.57
56241;BME280;42155;53.096;23.226;2023-04-23T04:47:51;99823.44;;;11.93;64.13
56241;BME280;42155;53.096;23.226;2023-04-23T04:49:52;99730.00;;;11.67;63.79
56241;BME280;42155;53.096;23.226;2023-04-23T04:51:52;99816.28;;;12.63;62.90
56241;BME280;42155;53.096;23.226;2023-04-23T04:53:52;99812.31;;;12.96;61.81
56241;BME280;42155;53.096;23.226;2023-04-23T04:55:53;99811.13;;;13.38;60.45
56241;BME280;42155;53.096;23.226;2023-04-23T04:57:53;99813.25;;;13.99;59.54
56241;BME280;42155;53.096;23.226;2023-04-23T04:59:53;99810.78;;;14.61;58.16
56241;BME280;42155;53.096;23.226;2023-04-23T05:01:53;99813.66;;;15.11;57.28
56241;BME280;42155;53.096;23.226;2023-04-23T05:03:54;99810.97;;;15.55;55.75
56241;BME280;42155;53.096;23.226;2023-04-23T05:05:55;99805.97;;;15.86;54.80
56241;BME280;42155;53.096;23.226;2023-04-23T05:07:55;99796.75;;;15.89;55.22
56241;BME280;42155;53.096;23.226;2023-04-23T05:09:55;99806.31;;;15.91;53.80
56241;BME280;42155;53.096;23.226;2023-04-23T05:11:56;99798.88;;;16.19;52.78
56241;BME280;42155;53.096;23.226;2023-04-23T05:13:56;99805.63;;;16.56;52.01
56241;BME280;42155;53.096;23.226;2023-04-23T05:15:56;99813.41;;;16.92;51.08
56241;BME280;42155;53.096;23.226;2023-04-23T05:17:57;99786.88;;;17.21;50.17
56241;BME280;42155;53.096;23.226;2023-04-23T05:19:57;99807.47;;;17.93;49.22
56241;BME280;42155;53.096;23.226;2023-04-23T05:21:57;99794.13;;;18.39;48.22
56241;BME280;42155;53.096;23.226;2023-04-23T05:23:58;99800.78;;;18.97;46.86
56241;BME280;42155;53.096;23.226;2023-04-23T05:25:58;99792.59;;;19.57;45.65
56241;BME280;42155;53.096;23.226;2023-04-23T05:27:58;99790.66;;;20.32;43.75
56241;BME280;42155;53.096;23.226;2023-04-23T05:30:00;99798.88;;;21.31;41.83
56241;BME280;42155;53.096;23.226;2023-04-23T05:32:01;99784.94;;;22.71;39.28
56241;BME280;42155;53.096;23.226;2023-04-23T05:34:01;99782.00;;;24.10;36.13
56241;BME280;42155;53.096;23.226;2023-04-23T05:36:02;99780.56;;;25.34;34.26
56241;BME280;42155;53.096;23.226;2023-04-23T05:38:02;99766.81;;;26.51;33.31
56241;BME280;42155;53.096;23.226;2023-04-23T05:40:03;99772.94;;;27.71;31.03
56241;BME280;42155;53.096;23.226;2023-04-23T05:42:03;99753.09;;;28.56;29.61
56241;BME280;42155;53.096;23.226;2023-04-23T05:44:04;99774.94;;;29.57;28.76
56241;BME280;42155;53.096;23.226;2023-04-23T05:46:04;99770.69;;;30.59;27.90
56241;BME280;42155;53.096;23.226;2023-04-23T05:48:04;99768.72;;;31.56;26.26
56241;BME280;42155;53.096;23.226;2023-04-23T05:50:05;99764.94;;;32.40;25.29
56241;BME280;42155;53.096;23.226;2023-04-23T05:52:06;99753.69;;;33.33;23.92
56241;BME280;42155;53.096;23.226;2023-04-23T05:54:06;99754.94;;;34.36;23.36
56241;BME280;42155;53.096;23.226;2023-04-23T05:56:07;99763.38;;;35.24;22.87
56241;BME280;42155;53.096;23.226;2023-04-23T05:58:07;99761.69;;;36.00;22.23
56241;BME280;42155;53.096;23.226;2023-04-23T06:00:07;99757.41;;;36.50;21.48
56241;BME280;42155;53.096;23.226;2023-04-23T06:02:09;99745.19;;;36.70;21.29
56241;BME280;42155;53.096;23.226;2023-04-23T06:04:09;99757.31;;;36.88;20.92
56241;BME280;42155;53.096;23.226;2023-04-23T06:06:10;99722.41;;;36.59;20.07
56241;BME280;42155;53.096;23.226;2023-04-23T06:08:11;99759.97;;;36.04;21.12
56241;BME280;42155;53.096;23.226;2023-04-23T06:10:11;99757.53;;;34.62;22.68
56241;BME280;42155;53.096;23.226;2023-04-23T06:12:11;99753.44;;;33.19;23.50
56241;BME280;42155;53.096;23.226;2023-04-23T06:14:12;99766.78;;;32.04;24.60
56241;BME280;42155;53.096;23.226;2023-04-23T06:16:12;99763.16;;;31.03;25.26
56241;BME280;42155;53.096;23.226;2023-04-23T06:18:12;99759.03;;;30.14;25.90
56241;BME280;42155;53.096;23.226;2023-04-23T06:20:13;99768.81;;;29.50;26.75
56241;BME280;42155;53.096;23.226;2023-04-23T06:22:13;99768.19;;;28.75;27.75
56241;BME280;42155;53.096;23.226;2023-04-23T06:24:13;99772.19;;;28.27;28.35
56241;BME280;42155;53.096;23.226;2023-04-23T06:26:14;99772.28;;;28.04;28.57
56241;BME280;42155;53.096;23.226;2023-04-23T06:28:14;99753.84;;;27.82;28.73
56241;BME280;42155;53.096;23.226;2023-04-23T06:30:14;99756.13;;;27.62;29.16
56241;BME280;42155;53.096;23.226;2023-04-23T06:32:15;99765.75;;;27.53;28.66
56241;BME280;42155;53.096;23.226;2023-04-23T06:34:15;99743.03;;;27.24;28.86
56241;BME280;42155;53.096;23.226;2023-04-23T06:36:15;99764.34;;;27.15;29.19
56241;BME280;42155;53.096;23.226;2023-04-23T06:38:16;99767.59;;;26.94;28.90
56241;BME280;42155;53.096;23.226;2023-04-23T06:40:16;99739.06;;;26.42;29.27
56241;BME280;42155;53.096;23.226;2023-04-23T06:42:16;99759.81;;;26.25;30.07
56241;BME280;42155;53.096;23.226;2023-04-23T06:44:17;99762.75;;;26.12;29.73
56241;BME280;42155;53.096;23.226;2023-04-23T06:46:17;99768.41;;;26.10;30.14
56241;BME280;42155;53.096;23.226;2023-04-23T06:48:17;99764.84;;;26.10;31.30
56241;BME280;42155;53.096;23.226;2023-04-23T06:50:18;99764.72;;;26.05;30.43
56241;BME280;42155;53.096;23.226;2023-04-23T06:52:18;99762.91;;;25.99;30.13
56241;BME280;42155;53.096;23.226;2023-04-23T06:54:18;99766.72;;;25.79;30.63
56241;BME280;42155;53.096;23.226;2023-04-23T06:56:19;99762.75;;;25.57;31.05
56241;BME280;42155;53.096;23.226;2023-04-23T06:58:20;99753.38;;;25.34;30.72
56241;BME280;42155;53.096;23.226;2023-04-23T07:00:21;99736.91;;;25.11;31.46
56241;BME280;42155;53.096;23.226;2023-04-23T07:02:22;99762.19;;;25.05;31.05
56241;BME280;42155;53.096;23.226;2023-04-23T07:04:22;99759.63;;;24.92;31.15
56241;BME280;42155;53.096;23.226;2023-04-23T07:06:22;99764.69;;;24.81;31.23
56241;BME280;42155;53.096;23.226;2023-04-23T07:08:23;99761.81;;;24.76;31.28
56241;BME280;42155;53.096;23.226;2023-04-23T07:10:23;99754.56;;;24.70;30.48
56241;BME280;42155;53.096;23.226;2023-04-23T07:12:24;99766.97;;;24.59;31.09
56241;BME280;42155;53.096;23.226;2023-04-23T07:14:24;99768.44;;;24.55;31.39
56241;BME280;42155;53.096;23.226;2023-04-23T07:16:24;99722.28;;;24.24;30.71
56241;BME280;42155;53.096;23.226;2023-04-23T07:18:25;99761.81;;;24.45;31.17
56241;BME280;42155;53.096;23.226;2023-04-23T07:20:25;99765.03;;;24.28;31.00
56241;BME280;42155;53.096;23.226;2023-04-23T07:22:25;99679.41;;;23.76;30.80
56241;BME280;42155;53.096;23.226;2023-04-23T07:24:26;99682.31;;;23.74;31.16
56241;BME280;42155;53.096;23.226;2023-04-23T07:26:26;99730.56;;;23.97;31.64
56241;BME280;42155;53.096;23.226;2023-04-23T07:28:26;99763.41;;;24.21;31.19
56241;BME280;42155;53.096;23.226;2023-04-23T07:30:27;99755.06;;;24.22;31.48
56241;BME280;42155;53.096;23.226;2023-04-23T07:32:27;99761.69;;;24.26;31.82
56241;BME280;42155;53.096;23.226;2023-04-23T07:34:27;99761.69;;;24.26;31.49
56241;BME280;42155;53.096;23.226;2023-04-23T07:36:28;99756.91;;;24.28;31.41
56241;BME280;42155;53.096;23.226;2023-04-23T07:38:28;99731.75;;;24.08;31.74
56241;BME280;42155;53.096;23.226;2023-04-23T07:40:28;99753.19;;;24.23;31.52
56241;BME280;42155;53.096;23.226;2023-04-23T07:42:29;99722.22;;;23.99;32.06
56241;BME280;42155;53.096;23.226;2023-04-23T07:44:29;99676.09;;;23.60;31.70
56241;BME280;42155;53.096;23.226;2023-04-23T07:46:29;99766.22;;;24.01;31.48
56241;BME280;42155;53.096;23.226;2023-04-23T07:48:30;99745.88;;;23.85;31.31
56241;BME280;42155;53.096;23.226;2023-04-23T07:50:30;99752.75;;;23.81;32.20
56241;BME280;42155;53.096;23.226;2023-04-23T07:52:30;99780.69;;;23.81;31.13
56241;BME280;42155;53.096;23.226;2023-04-23T07:54:31;99751.94;;;23.80;31.24
56241;BME280;42155;53.096;23.226;2023-04-23T07:56:31;99756.06;;;23.83;31.60
56241;BME280;42155;53.096;23.226;2023-04-23T07:58:31;99758.13;;;23.87;31.25
56241;BME280;42155;53.096;23.226;2023-04-23T08:00:32;99746.50;;;23.80;31.01
56241;BME280;42155;53.096;23.226;2023-04-23T08:02:32;99753.59;;;23.81;31.13
56241;BME280;42155;53.096;23.226;2023-04-23T08:04:32;99750.47;;;23.78;31.91
56241;BME280;42155;53.096;23.226;2023-04-23T08:06:33;99736.53;;;23.61;30.86
56241;BME280;42155;53.096;23.226;2023-04-23T08:08:33;99754.88;;;23.72;31.23
56241;BME280;42155;53.096;23.226;2023-04-23T08:10:34;99745.28;;;23.63;30.86
56241;BME280;42155;53.096;23.226;2023-04-23T08:12:34;99751.34;;;23.58;30.69
56241;BME280;42155;53.096;23.226;2023-04-23T08:14:35;99752.78;;;23.61;31.10
56241;BME280;42155;53.096;23.226;2023-04-23T08:16:35;99705.78;;;23.35;31.33
56241;BME280;42155;53.096;23.226;2023-04-23T08:18:35;99740.28;;;23.60;31.72
56241;BME280;42155;53.096;23.226;2023-04-23T08:20:36;99741.13;;;23.60;31.84
56241;BME280;42155;53.096;23.226;2023-04-23T08:22:36;99723.66;;;23.43;31.54
56241;BME280;42155;53.096;23.226;2023-04-23T08:24:36;99698.09;;;23.26;31.90
56241;BME280;42155;53.096;23.226;2023-04-23T08:26:37;99741.56;;;23.51;31.82
56241;BME280;42155;53.096;23.226;2023-04-23T08:28:37;99733.63;;;23.56;32.40
56241;BME280;42155;53.096;23.226;2023-04-23T08:30:38;99739.69;;;23.58;31.44
56241;BME280;42155;53.096;23.226;2023-04-23T08:32:38;99691.88;;;23.19;30.85
56241;BME280;42155;53.096;23.226;2023-04-23T08:34:39;99730.72;;;23.51;31.28
56241;BME280;42155;53.096;23.226;2023-04-23T08:36:39;99742.84;;;23.48;31.00
56241;BME280;42155;53.096;23.226;2023-04-23T08:38:40;99731.16;;;23.54;31.52
56241;BME280;42155;53.096;23.226;2023-04-23T08:40:41;99714.09;;;23.41;30.81
56241;BME280;42155;53.096;23.226;2023-04-23T08:42:47;99726.97;;;23.52;30.87
56241;BME280;42155;53.096;23.226;2023-04-23T08:44:49;99639.66;;;22.85;30.86
56241;BME280;42155;53.096;23.226;2023-04-23T08:46:52;99735.13;;;23.38;30.36
56241;BME280;42155;53.096;23.226;2023-04-23T08:48:55;99737.44;;;23.28;29.89
56241;BME280;42155;53.096;23.226;2023-04-23T08:50:58;99735.41;;;23.17;29.32
56241;BME280;42155;53.096;23.226;2023-04-23T08:53:00;99681.69;;;22.87;30.00
56241;BME280;42155;53.096;23.226;2023-04-23T08:55:04;99737.06;;;23.18;30.57
56241;BME280;42155;53.096;23.226;2023-04-23T08:57:06;99726.22;;;23.18;30.42
56241;BME280;42155;53.096;23.226;2023-04-23T08:59:07;99730.97;;;23.29;31.25
56241;BME280;42155;53.096;23.226;2023-04-23T09:01:08;99707.47;;;23.30;31.37
56241;BME280;42155;53.096;23.226;2023-04-23T09:03:09;99710.34;;;23.42;30.62
56241;BME280;42155;53.096;23.226;2023-04-23T09:05:09;99711.53;;;23.52;29.70
56241;BME280;42155;53.096;23.226;2023-04-23T09:07:09;99723.47;;;23.45;29.46
56241;BME280;42155;53.096;23.226;2023-04-23T09:09:15;99717.03;;;23.39;29.37
56241;BME280;42155;53.096;23.226;2023-04-23T09:11:16;99726.19;;;23.38;29.72
56241;BME280;42155;53.096;23.226;2023-04-23T09:13:16;99707.28;;;23.18;29.48
56241;BME280;42155;53.096;23.226;2023-04-23T09:15:17;99716.66;;;23.22;30.19
56241;BME280;42155;53.096;23.226;2023-04-23T09:17:17;99712.47;;;23.26;29.79
56241;BME280;42155;53.096;23.226;2023-04-23T09:19:18;99713.28;;;23.33;30.34
56241;BME280;42155;53.096;23.226;2023-04-23T09:21:19;99718.28;;;23.36;29.67
56241;BME280;42155;53.096;23.226;2023-04-23T09:23:20;99706.84;;;23.34;29.39
56241;BME280;42155;53.096;23.226;2023-04-23T09:25:22;99695.41;;;23.19;29.30
56241;BME280;42155;53.096;23.226;2023-04-23T09:27:23;99693.34;;;23.01;29.59
56241;BME280;42155;53.096;23.226;2023-04-23T09:29:23;99659.63;;;22.77;29.64
56241;BME280;42155;53.096;23.226;2023-04-23T09:31:23;99706.88;;;23.08;30.35
56241;BME280;42155;53.096;23.226;2023-04-23T09:33:24;99706.25;;;23.12;29.79
56241;BME280;42155;53.096;23.226;2023-04-23T09:35:26;99707.47;;;23.23;30.58
56241;BME280;42155;53.096;23.226;2023-04-23T09:37:27;99697.66;;;23.29;30.04
56241;BME280;42155;53.096;23.226;2023-04-23T09:39:28;99702.47;;;23.27;30.30
56241;BME280;42155;53.096;23.226;2023-04-23T09:41:28;99704.72;;;23.36;29.48
56241;BME280;42155;53.096;23.226;2023-04-23T09:43:29;99694.50;;;23.45;29.73
56241;BME280;42155;53.096;23.226;2023-04-23T09:45:29;99703.22;;;23.54;30.04
56241;BME280;42155;53.096;23.226;2023-04-23T09:47:34;99705.06;;;23.60;29.78
56241;BME280;42155;53.096;23.226;2023-04-23T09:49:47;99690.72;;;23.53;30.46
56241;BME280;42155;53.096;23.226;2023-04-23T09:51:48;99699.28;;;23.50;30.40
56241;BME280;42155;53.096;23.226;2023-04-23T09:53:48;99699.28;;;23.43;29.69
56241;BME280;42155;53.096;23.226;2023-04-23T09:55:51;99685.59;;;23.31;28.97
56241;BME280;42155;53.096;23.226;2023-04-23T09:57:52;99702.88;;;23.24;29.28
56241;BME280;42155;53.096;23.226;2023-04-23T09:59:55;99683.13;;;23.10;29.38
56241;BME280;42155;53.096;23.226;2023-04-23T10:01:56;99682.53;;;22.95;29.27
56241;BME280;42155;53.096;23.226;2023-04-23T10:04:00;99657.94;;;22.83;30.20
56241;BME280;42155;53.096;23.226;2023-04-23T10:06:01;99617.22;;;22.58;30.23
56241;BME280;42155;53.096;23.226;2023-04-23T10:08:01;99672.97;;;22.99;30.33
56241;BME280;42155;53.096;23.226;2023-04-23T10:10:02;99678.78;;;23.02;29.61
56241;BME280;42155;53.096;23.226;2023-04-23T10:12:02;99675.06;;;22.83;29.60
56241;BME280;42155;53.096;23.226;2023-04-23T10:14:03;99677.31;;;22.73;29.05
56241;BME280;42155;53.096;23.226;2023-04-23T10:16:04;99640.94;;;22.56;30.00
56241;BME280;42155;53.096;23.226;2023-04-23T10:18:06;99662.13;;;22.72;29.71
56241;BME280;42155;53.096;23.226;2023-04-23T10:20:07;99615.53;;;22.50;30.39
56241;BME280;42155;53.096;23.226;2023-04-23T10:22:09;99656.31;;;22.88;29.67
56241;BME280;42155;53.096;23.226;2023-04-23T10:24:10;99666.31;;;22.95;29.86
56241;BME280;42155;53.096;23.226;2023-04-23T10:26:13;99660.06;;;22.94;29.67
56241;BME280;42155;53.096;23.226;2023-04-23T10:28:16;99659.66;;;22.91;29.67
56241;BME280;42155;53.096;23.226;2023-04-23T10:30:19;99659.41;;;22.85;29.47
56241;BME280;42155;53.096;23.226;2023-04-23T10:32:20;99590.59;;;22.42;28.96
56241;BME280;42155;53.096;23.226;2023-04-23T10:34:20;99650.47;;;22.78;29.39